Time;durP1;ratioP1;P1;durP2;ratioP2;P2;SDS_P1;SDS_P2;PMS_P1;PMS_P2;Temp;Humidity;BMP_temperature;BMP_pressure;BME280_temperature;BME280_humidity;BME280_pressure;Samples;Min_cycle;Max_cycle;Signal;HPM_P1;HPM_P2
2022/09/21 00:00:08;;;;;;;5.18;2.72;;;;;;;28.00;37.96;101265.22;4180811;28;20079;-63
2022/09/21 00:02:09;;;;;;;4.80;2.20;;;;;;;27.99;37.98;101263.53;4180187;28;20040;-64
2022/09/21 00:04:11;;;;;;;2.50;2.30;;;;;;;27.97;37.95;101273.47;4180910;28;20106;-64
2022/09/21 00:06:16;;;;;;;3.95;2.67;;;;;;;27.99;37.76;101279.59;4180822;28;20037;-65
2022/09/21 00:08:17;;;;;;;5.10;2.58;;;;;;;27.99;37.68;101279.59;4180523;28;20041;-64
2022/09/21 00:10:20;;;;;;;2.88;2.60;;;;;;;27.95;37.71;101278.56;4180220;28;20045;-64
2022/09/21 00:12:21;;;;;;;3.22;2.60;;;;;;;27.78;37.80;101252.00;4180295;28;20087;-62
2022/09/21 00:14:23;;;;;;;3.95;2.60;;;;;;;27.97;37.86;101281.91;4180238;28;20037;-61
2022/09/21 00:16:28;;;;;;;2.80;2.45;;;;;;;27.97;37.97;101287.53;4180649;28;20037;-62
2022/09/21 00:18:29;;;;;;;;;;;;;;;27.95;37.91;101289.81;4181148;28;20033;-65
2022/09/21 00:20:34;;;;;;;3.15;2.60;;;;;;;28.00;37.96;101281.28;4180697;28;19921;-62
2022/09/21 00:22:36;;;;;;;3.30;2.30;;;;;;;28.02;38.00;101293.03;4180206;28;20037;-63
2022/09/21 00:24:38;;;;;;;3.05;2.58;;;;;;;27.93;38.01;101281.72;4180685;28;20041;-63
2022/09/21 00:26:42;;;;;;;3.00;2.65;;;;;;;27.99;38.27;101288.84;4180473;28;20053;-62
2022/09/21 00:28:48;;;;;;;3.13;2.63;;;;;;;27.89;38.32;101279.84;4180110;28;20041;-65
2022/09/21 00:30:52;;;;;;;3.25;2.92;;;;;;;27.99;38.25;101293.66;4182814;28;20070;-65
2022/09/21 00:32:53;;;;;;;3.67;2.80;;;;;;;27.97;38.18;101298.78;4185526;28;20082;-64
2022/09/21 00:34:59;;;;;;;3.38;2.70;;;;;;;27.97;38.39;101299.59;4196985;28;20029;-64
2022/09/21 00:37:00;;;;;;;3.42;3.13;;;;;;;27.88;38.40;101275.38;4188635;28;20427;-64
2022/09/21 00:39:02;;;;;;;3.17;2.83;;;;;;;27.98;38.20;101301.25;4180177;28;20041;-63
2022/09/21 00:41:06;;;;;;;2.75;2.55;;;;;;;27.92;38.43;101285.69;4181078;28;20091;-64
2022/09/21 00:43:17;;;;;;;4.40;2.80;;;;;;;27.97;38.34;101299.59;4180200;28;20037;-64
2022/09/21 00:45:21;;;;;;;4.18;2.83;;;;;;;27.92;38.45;101294.13;4179763;28;20033;-64
2022/09/21 00:47:30;;;;;;;4.43;2.90;;;;;;;27.94;38.51;101293.78;4180358;28;20029;-64
2022/09/21 00:49:33;;;;;;;3.80;2.92;;;;;;;27.91;38.63;101288.81;4182044;28;20037;-65
2022/09/21 00:51:36;;;;;;;3.88;3.10;;;;;;;27.92;38.69;101296.94;4182959;28;20048;-64
2022/09/21 00:53:38;;;;;;;2.97;2.67;;;;;;;27.99;38.69;101302.09;4183453;28;20053;-64
2022/09/21 00:55:46;;;;;;;4.38;3.08;;;;;;;27.88;38.71;101287.47;4183619;28;20033;-64
2022/09/21 00:57:54;;;;;;;3.90;3.05;;;;;;;27.98;38.75;101300.44;4183939;28;20036;-64
2022/09/21 01:00:01;;;;;;;3.85;3.45;;;;;;;27.98;38.82;101306.88;4182806;28;20107;-64
2022/09/21 01:02:03;;;;;;;3.72;3.25;;;;;;;27.97;38.88;101308.03;4196788;28;20117;-64
2022/09/21 01:04:05;;;;;;;4.07;2.90;;;;;;;27.97;39.03;101305.22;4199491;28;20037;-64
2022/09/21 01:06:07;;;;;;;3.95;3.38;;;;;;;27.95;38.68;101301.06;4199886;28;20360;-64
2022/09/21 01:08:12;;;;;;;3.08;2.72;;;;;;;27.95;38.98;101301.06;4199389;28;20048;-64
2022/09/21 01:10:18;;;;;;;4.25;3.10;;;;;;;27.96;38.97;101308.38;4199488;28;20040;-64
2022/09/21 01:12:34;;;;;;;5.60;3.58;;;;;;;27.94;38.93;101299.41;4199637;28;20102;-64
2022/09/21 01:14:58;;;;;;;5.10;3.03;;;;;;;27.90;38.86;101299.22;4198929;28;20036;-64
2022/09/21 01:17:01;;;;;;;3.75;2.72;;;;;;;27.96;38.88;101302.75;4189759;28;20102;-64
2022/09/21 01:19:24;;;;;;;3.28;2.92;;;;;;;27.94;38.99;101310.66;4181565;28;20091;-66
2022/09/21 01:21:38;;;;;;;4.50;3.15;;;;;;;27.96;38.92;101309.22;4182626;28;20091;-64
2022/09/21 01:24:34;;;;;;;4.75;3.58;;;;;;;27.96;39.19;101314.84;4183036;28;20106;-63
2022/09/21 01:27:06;;;;;;;4.17;3.47;;;;;;;27.97;38.98;101304.41;4179371;28;20052;-64
2022/09/21 01:29:42;;;;;;;4.18;3.22;;;;;;;27.77;39.21;101280.47;4182480;28;20419;-64
2022/09/21 01:32:24;;;;;;;6.95;3.28;;;;;;;27.92;39.25;101301.72;4192108;28;20484;-64
2022/09/21 01:34:50;;;;;;;7.82;3.63;;;;;;;27.74;39.18;101279.09;4198599;28;20090;-64
2022/09/21 01:36:55;;;;;;;3.25;2.95;;;;;;;27.99;38.84;101302.09;4199070;28;20094;-64
2022/09/21 01:39:16;;;;;;;3.67;3.17;;;;;;;27.75;39.04;101272.31;4199000;28;20483;-64
2022/09/21 01:41:24;;;;;;;4.78;3.67;;;;;;;27.98;39.13;101311.69;4198830;28;20098;-64
2022/09/21 01:43:34;;;;;;;4.55;3.55;;;;;;;27.97;39.16;101307.22;4198984;28;20041;-64
2022/09/21 01:45:45;;;;;;;4.82;3.25;;;;;;;27.96;39.33;101314.00;4199190;28;20033;-64
2022/09/21 01:47:48;;;;;;;5.78;3.67;;;;;;;27.96;39.50;101314.84;4198134;28;20118;-64
2022/09/21 01:49:57;;;;;;;3.60;3.30;;;;;;;27.96;39.40;101314.00;4199391;28;20480;-65
2022/09/21 01:52:10;;;;;;;6.88;3.72;;;;;;;27.92;39.46;101305.38;4198560;28;20545;-64
2022/09/21 01:54:20;;;;;;;4.07;3.40;;;;;;;27.97;39.45;101310.03;4199298;28;20040;-64
2022/09/21 01:56:27;;;;;;;3.33;3.03;;;;;;;27.96;39.47;101308.38;4198847;28;20102;-64
2022/09/21 01:58:45;;;;;;;4.57;3.50;;;;;;;27.96;39.36;101319.63;4199076;28;20357;-65
2022/09/21 02:00:50;;;;;;;5.85;3.92;;;;;;;27.97;39.57;101318.47;4199234;28;20041;-65
2022/09/21 02:02:57;;;;;;;;;;;;;;;27.94;39.63;101311.50;4199380;28;20101;-64
2022/09/21 02:05:03;;;;;;;4.10;3.70;;;;;;;28.01;39.29;101320.31;4198482;28;19965;-64
2022/09/21 02:07:06;;;;;;;5.75;3.72;;;;;;;28.02;39.57;101321.16;4198567;28;20090;-65
2022/09/21 02:09:09;;;;;;;3.90;3.50;;;;;;;28.01;39.14;101311.06;4198872;28;20070;-64
2022/09/21 02:11:12;;;;;;;5.80;3.50;;;;;;;28.01;39.44;101316.69;4198489;28;20040;-64
2022/09/21 02:13:16;;;;;;;4.57;3.78;;;;;;;27.98;39.34;101317.31;4198802;28;20090;-65
2022/09/21 02:15:23;;;;;;;5.57;4.07;;;;;;;27.97;39.34;101321.28;4199006;28;20082;-65
2022/09/21 02:17:33;;;;;;;5.57;3.67;;;;;;;27.97;39.55;101322.13;4198667;28;20417;-64
2022/09/21 02:19:45;;;;;;;4.05;3.58;;;;;;;27.97;39.55;101322.13;4198739;28;20041;-64
2022/09/21 02:22:08;;;;;;;5.45;3.38;;;;;;;27.98;39.52;101328.56;4197722;28;20091;-65
2022/09/21 02:24:23;;;;;;;5.05;3.90;;;;;;;27.99;39.65;101322.59;4198701;28;20541;-64
2022/09/21 02:26:51;;;;;;;4.20;3.78;;;;;;;27.81;39.56;101287.94;4185124;28;20539;-64
2022/09/21 02:29:18;;;;;;;4.85;3.53;;;;;;;27.99;39.72;101316.97;4179709;28;20389;-64
2022/09/21 02:31:31;;;;;;;3.88;3.33;;;;;;;27.99;39.38;101318.97;4185265;28;20550;-64
2022/09/21 02:34:32;;;;;;;4.00;3.53;;;;;;;27.96;39.37;101326.09;4194307;28;20036;-65
2022/09/21 02:36:43;;;;;;;4.57;3.60;;;;;;;28.00;39.41;101327.09;4148099;28;20115;-64
2022/09/21 02:39:03;;;;;;;4.22;3.30;;;;;;;27.98;39.53;101328.56;4182145;28;20501;-64
2022/09/21 02:41:18;;;;;;;4.50;3.80;;;;;;;27.99;39.58;101324.59;4184799;28;20090;-65
2022/09/21 02:43:34;;;;;;;4.43;3.17;;;;;;;27.98;39.81;101334.19;4192868;28;20036;-65
2022/09/21 02:45:44;;;;;;;;;;;;;;;27.98;39.65;101331.38;4198702;28;20094;-65
2022/09/21 02:47:48;;;;;;;5.00;3.55;;;;;;;28.07;39.54;101332.28;4183239;28;19913;-65
2022/09/21 02:49:57;;;;;;;5.68;3.22;;;;;;;28.09;39.87;101324.34;4181516;28;20098;-65
2022/09/21 02:52:08;;;;;;;58.90;6.82;;;;;;;28.09;39.86;101324.34;4180972;28;20083;-65
2022/09/21 02:54:13;;;;;;;10.85;3.72;;;;;;;28.07;39.47;101315.38;4181458;28;20099;-65
2022/09/21 02:56:18;;;;;;;9.25;3.75;;;;;;;27.89;39.31;101288.28;4183816;28;20439;-65
2022/09/21 02:58:21;;;;;;;9.95;3.60;;;;;;;28.09;39.60;101313.09;4181697;28;20068;-67
2022/09/21 03:00:25;;;;;;;10.18;4.18;;;;;;;28.02;39.47;101319.16;4181512;28;20063;-65
2022/09/21 03:02:41;;;;;;;4.30;3.78;;;;;;;28.03;39.70;101322.81;4181549;28;20029;-65
2022/09/21 03:04:48;;;;;;;5.82;3.53;;;;;;;28.02;39.44;101321.16;4181296;28;20041;-65
2022/09/21 03:06:50;;;;;;;7.72;3.58;;;;;;;28.01;39.66;101328.75;4180829;28;20044;-65
2022/09/21 03:08:57;;;;;;;4.55;3.63;;;;;;;27.99;39.52;101328.22;4181299;28;20446;-65
2022/09/21 03:10:59;;;;;;;6.57;3.83;;;;;;;27.99;39.56;101341.47;4174298;28;20041;-65
2022/09/21 03:13:01;;;;;;;6.22;3.55;;;;;;;27.98;39.93;101320.13;4193012;28;20549;-65
2022/09/21 03:15:04;;;;;;;4.55;3.65;;;;;;;27.97;39.94;101324.09;4197027;28;20036;-65
2022/09/21 03:17:05;;;;;;;7.05;3.40;;;;;;;27.97;39.82;101318.47;4197292;28;20033;-65
2022/09/21 03:19:06;;;;;;;5.75;3.97;;;;;;;27.95;39.87;101320.75;4197714;28;20073;-65
2022/09/21 03:21:11;;;;;;;5.60;3.67;;;;;;;27.73;39.77;101283.06;4197554;28;20094;-65
2022/09/21 03:23:13;;;;;;;8.07;4.22;;;;;;;27.97;39.65;101326.91;4195219;28;20036;-64
2022/09/21 03:25:17;;;;;;;11.52;4.65;;;;;;;27.94;39.90;101322.75;4196225;28;20448;-64
2022/09/21 03:27:21;;;;;;;5.55;3.47;;;;;;;27.97;39.65;101332.53;4197205;28;20492;-64
2022/09/21 03:29:22;;;;;;;4.93;3.97;;;;;;;27.90;39.92;101316.09;4197072;28;20381;-64
2022/09/21 03:31:23;;;;;;;4.70;3.53;;;;;;;27.97;40.02;101327.75;4197318;28;20066;-64
2022/09/21 03:33:25;;;;;;;4.82;3.90;;;;;;;27.97;39.82;101324.94;4197625;28;20036;-64
2022/09/21 03:35:26;;;;;;;5.45;3.92;;;;;;;27.98;40.02;101322.94;4197435;28;20040;-64
2022/09/21 03:37:28;;;;;;;6.47;4.03;;;;;;;27.98;40.15;101328.56;4197764;28;20145;-64
2022/09/21 03:39:30;;;;;;;6.45;4.10;;;;;;;27.88;39.99;101306.31;4192040;28;20118;-64
2022/09/21 03:41:31;;;;;;;6.93;4.63;;;;;;;27.97;39.79;101332.53;4188995;28;20032;-64
2022/09/21 03:43:33;;;;;;;7.15;3.75;;;;;;;27.97;40.02;101326.91;4180523;28;20090;-64
2022/09/21 03:45:39;;;;;;;7.03;4.10;;;;;;;27.98;39.96;101322.94;4188674;28;20039;-65
2022/09/21 03:47:41;;;;;;;7.35;4.03;;;;;;;28.01;40.17;101322.31;4197638;28;20036;-65
2022/09/21 03:49:43;;;;;;;8.35;4.07;;;;;;;28.03;40.32;101326.44;4184203;28;20044;-65
2022/09/21 03:51:44;;;;;;;7.78;4.10;;;;;;;27.93;40.72;101309.84;4182145;28;20086;-65
2022/09/21 03:53:45;;;;;;;5.53;4.18;;;;;;;28.10;41.49;101337.25;4179743;28;20042;-64
2022/09/21 03:55:47;;;;;;;5.63;4.13;;;;;;;28.11;41.51;101339.75;4180105;28;20114;-65
2022/09/21 03:57:48;;;;;;;4.50;3.90;;;;;;;28.12;41.51;101351.81;4180938;28;20107;-65
2022/09/21 03:59:49;;;;;;;7.45;4.00;;;;;;;28.12;41.21;101346.19;4180318;28;20044;-65
2022/09/21 04:01:51;;;;;;;7.47;4.00;;;;;;;28.14;40.90;101337.47;4179870;28;20118;-65
2022/09/21 04:03:58;;;;;;;6.40;4.20;;;;;;;28.13;40.94;101330.97;4180712;28;20044;-65
2022/09/21 04:06:07;;;;;;;4.95;3.67;;;;;;;28.10;40.61;101331.63;4185078;28;20044;-65
2022/09/21 04:08:08;;;;;;;7.00;3.90;;;;;;;27.99;40.95;101308.53;4185629;28;20430;-65
2022/09/21 04:10:11;;;;;;;9.38;4.50;;;;;;;28.17;40.76;101342.44;4180477;28;20045;-65
2022/09/21 04:12:13;;;;;;;5.45;3.72;;;;;;;28.17;40.93;101342.44;4191338;28;20037;-65
2022/09/21 04:14:17;;;;;;;7.05;3.85;;;;;;;28.17;40.78;101342.44;4196994;28;20045;-65
2022/09/21 04:16:18;;;;;;;5.07;3.80;;;;;;;28.15;40.74;101334.31;4196470;28;20040;-65
2022/09/21 04:18:20;;;;;;;5.75;4.03;;;;;;;28.18;40.63;101339.31;4196707;28;20044;-65
2022/09/21 04:20:22;;;;;;;4.35;3.72;;;;;;;28.10;40.51;101326.84;4197186;28;20089;-65
2022/09/21 04:22:23;;;;;;;5.50;3.50;;;;;;;28.12;40.48;101332.97;4195888;28;20102;-64
2022/09/21 04:24:26;;;;;;;7.30;3.80;;;;;;;28.16;40.45;101347.22;4188107;28;20083;-65
2022/09/21 04:26:30;;;;;;;5.00;3.60;;;;;;;28.20;40.31;101350.22;4200574;28;20044;-65
2022/09/21 04:28:31;;;;;;;6.00;4.10;;;;;;;28.19;40.46;101349.41;4198153;28;20545;-65
2022/09/21 04:30:34;;;;;;;5.45;4.20;;;;;;;28.20;40.77;101353.06;4183367;28;20053;-65
2022/09/21 04:32:35;;;;;;;6.80;4.15;;;;;;;28.19;40.33;101349.41;4184779;28;20098;-65
2022/09/21 04:34:38;;;;;;;6.80;3.85;;;;;;;28.00;40.85;101329.91;4183840;28;20411;-65
2022/09/21 04:36:42;;;;;;;5.25;4.05;;;;;;;28.20;40.47;101353.88;4183824;28;20504;-65
2022/09/21 04:38:44;;;;;;;5.65;4.07;;;;;;;28.16;40.59;101352.84;4184083;28;20021;-65
2022/09/21 04:40:57;;;;;;;4.80;3.85;;;;;;;28.20;40.43;101362.31;4186728;28;20032;-66
2022/09/21 04:42:58;;;;;;;7.20;3.65;;;;;;;28.22;40.25;101357.19;4192411;28;20177;-65
2022/09/21 04:45:00;;;;;;;3.95;3.50;;;;;;;28.08;40.30;101331.94;4194042;28;20048;-65
2022/09/21 04:47:01;;;;;;;3.92;3.50;;;;;;;28.15;40.49;101351.19;4199187;28;20189;-65
2022/09/21 04:49:02;;;;;;;4.78;3.88;;;;;;;28.19;40.26;101357.84;4200244;28;20492;-65
2022/09/21 04:51:06;;;;;;;7.85;4.20;;;;;;;28.16;40.48;101358.47;4200460;28;20099;-65
2022/09/21 04:53:13;;;;;;;3.78;3.45;;;;;;;28.15;40.18;101356.81;4199996;28;20040;-66
2022/09/21 04:55:15;;;;;;;9.25;3.60;;;;;;;28.14;40.48;101363.63;4199386;28;20079;-65
2022/09/21 04:57:17;;;;;;;4.65;3.42;;;;;;;28.14;40.43;101360.78;4200393;28;20036;-65
2022/09/21 04:59:21;;;;;;;4.00;3.53;;;;;;;28.13;40.27;101367.56;4200293;28;20090;-65
2022/09/21 05:01:25;;;;;;;4.05;3.65;;;;;;;28.15;40.11;101367.25;4194189;28;20044;-65
2022/09/21 05:03:26;;;;;;;5.53;3.33;;;;;;;28.15;40.12;101362.44;4189392;28;20095;-65
2022/09/21 05:05:30;;;;;;;4.72;3.45;;;;;;;28.14;39.91;101369.25;4183591;28;20041;-65
2022/09/21 05:07:35;;;;;;;3.88;3.17;;;;;;;27.95;40.29;101335.69;4183419;28;20037;-65
2022/09/21 05:11:58;;;;;;;4.05;3.40;;;;;;;28.17;39.88;101368.56;4183585;28;20087;-65
2022/09/21 05:13:59;;;;;;;4.00;3.35;;;;;;;28.19;39.90;101362.66;4183542;28;20049;-65
2022/09/21 05:16:06;;;;;;;4.18;3.50;;;;;;;28.15;39.76;101365.25;4186916;28;20036;-65
2022/09/21 05:18:07;;;;;;;6.20;3.50;;;;;;;28.15;39.92;101367.25;4182672;28;20041;-65
2022/09/21 05:20:12;;;;;;;4.15;3.15;;;;;;;28.05;39.81;101346.66;4186299;28;20049;-65
2022/09/21 05:22:17;;;;;;;5.28;3.47;;;;;;;28.14;40.00;101365.59;4189645;28;20094;-65
2022/09/21 05:24:27;;;;;;;3.70;3.30;;;;;;;27.92;40.11;101329.84;4183207;28;20037;-65
2022/09/21 05:26:28;;;;;;;4.00;3.60;;;;;;;28.13;40.19;101364.75;4181714;28;20095;-65
2022/09/21 05:28:33;;;;;;;5.50;3.33;;;;;;;28.09;40.18;101363.75;4182837;28;20033;-65
2022/09/21 05:30:34;;;;;;;5.97;3.38;;;;;;;28.11;39.93;101362.25;4182633;28;20045;-65
2022/09/21 05:32:46;;;;;;;3.42;3.00;;;;;;;27.88;39.86;101331.66;4182743;28;20087;-65
2022/09/21 05:35:11;;;;;;;3.35;3.05;;;;;;;28.02;40.18;101357.72;4182255;28;20095;-65
2022/09/21 05:37:30;;;;;;;4.28;3.80;;;;;;;28.12;40.05;101369.53;4182751;28;20106;-65
2022/09/21 05:39:32;;;;;;;4.45;3.00;;;;;;;28.11;39.90;101373.50;4186126;28;20419;-65
2022/09/21 05:41:33;;;;;;;3.47;3.15;;;;;;;28.11;40.09;101378.31;4188497;28;20426;-65
2022/09/21 05:43:35;;;;;;;3.78;3.45;;;;;;;28.05;39.88;101363.53;4198281;28;20044;-65
2022/09/21 05:45:51;;;;;;;4.47;3.22;;;;;;;27.94;40.04;101355.66;4192990;28;20361;-65
2022/09/21 05:48:16;;;;;;;3.63;3.13;;;;;;;28.08;40.09;101365.69;4181235;28;20459;-65
2022/09/21 05:50:45;;;;;;;3.85;3.13;;;;;;;28.11;40.17;101358.63;4180727;28;20070;-65
2022/09/21 05:52:52;;;;;;;2.85;2.60;;;;;;;28.14;40.10;101359.97;4195066;28;20106;-65
2022/09/21 05:55:06;;;;;;;3.50;3.20;;;;;;;28.11;39.94;101358.63;4199312;28;20036;-65
2022/09/21 05:57:38;;;;;;;5.75;3.20;;;;;;;28.13;39.99;101353.47;4199188;28;20098;-65
2022/09/21 05:59:48;;;;;;;5.50;3.10;;;;;;;28.15;39.90;101354.00;4199057;28;20426;-65
2022/09/21 06:02:29;;;;;;;2.67;2.47;;;;;;;28.13;40.04;101347.84;4198853;28;20044;-65
2022/09/21 06:04:30;;;;;;;4.57;2.78;;;;;;;28.17;40.10;101343.25;4198562;28;20040;-65
2022/09/21 06:06:32;;;;;;;3.40;3.10;;;;;;;28.18;39.67;101349.72;4198644;28;20041;-66
2022/09/21 06:08:33;;;;;;;3.63;3.30;;;;;;;28.06;39.75;101330.63;4189087;28;20044;-65
2022/09/21 06:10:35;;;;;;;3.42;2.97;;;;;;;28.14;39.75;101341.09;4183348;28;20045;-65
2022/09/21 06:12:36;;;;;;;3.17;2.88;;;;;;;28.07;40.19;101329.47;4181841;28;20091;-65
2022/09/21 06:14:37;;;;;;;3.97;3.05;;;;;;;28.11;40.00;101338.91;4182369;28;20041;-65
2022/09/21 06:16:40;;;;;;;2.85;2.65;;;;;;;28.08;40.24;101333.94;4182185;28;20436;-65
2022/09/21 06:18:42;;;;;;;3.95;2.65;;;;;;;27.93;40.01;101304.22;4182210;28;20099;-65
2022/09/21 06:20:43;;;;;;;3.97;3.17;;;;;;;28.12;39.72;101341.41;4181930;28;20045;-65
2022/09/21 06:22:44;;;;;;;3.08;2.67;;;;;;;28.12;39.75;101347.03;4181944;28;20033;-65
2022/09/21 06:24:46;;;;;;;4.97;2.90;;;;;;;28.12;39.91;101351.81;4182287;28;20435;-65
2022/09/21 06:26:50;;;;;;;3.15;2.85;;;;;;;28.10;39.90;101351.34;4182266;28;20546;-65
2022/09/21 06:28:54;;;;;;;3.05;2.70;;;;;;;27.99;39.78;101325.41;4182085;28;20110;-65
2022/09/21 06:30:57;;;;;;;3.50;2.90;;;;;;;28.08;39.88;101345.19;4181895;28;20496;-65
2022/09/21 06:33:02;;;;;;;3.38;2.90;;;;;;;28.11;39.65;101344.53;4187413;28;20060;-65
2022/09/21 06:35:03;;;;;;;3.20;2.90;;;;;;;28.11;39.81;101338.91;4198227;28;20040;-65
2022/09/21 06:37:04;;;;;;;3.42;2.63;;;;;;;28.11;39.92;101338.91;4198145;28;20515;-66
2022/09/21 06:39:06;;;;;;;2.88;2.42;;;;;;;28.10;39.96;101334.44;4198344;28;20375;-66
2022/09/21 06:41:07;;;;;;;3.55;2.70;;;;;;;28.11;40.06;101333.28;4198273;28;20109;-65
2022/09/21 06:43:08;;;;;;;3.20;2.90;;;;;;;28.10;40.06;101334.44;4198399;28;20097;-65
2022/09/21 06:45:10;;;;;;;3.20;2.40;;;;;;;28.07;40.02;101321.00;4198602;28;20016;-65
2022/09/21 06:47:11;;;;;;;5.20;2.92;;;;;;;27.83;39.72;101293.22;4197196;28;20037;-65
2022/09/21 06:49:12;;;;;;;2.45;2.25;;;;;;;28.09;39.74;101338.41;4198105;28;20373;-65
2022/09/21 06:51:16;;;;;;;3.10;2.80;;;;;;;27.86;39.90;101299.03;4195243;28;20036;-65
2022/09/21 06:53:18;;;;;;;3.03;2.38;;;;;;;27.99;39.71;101318.97;4186586;28;20044;-66
2022/09/21 06:55:24;;;;;;;2.88;2.47;;;;;;;28.10;39.89;101337.25;4198127;28;20037;-66
2022/09/21 06:57:26;;;;;;;4.32;2.70;;;;;;;28.11;39.92;101344.53;4191064;28;20040;-65
2022/09/21 06:59:27;;;;;;;2.78;2.55;;;;;;;28.11;39.52;101336.09;4181704;28;20102;-65
2022/09/21 07:01:34;;;;;;;2.92;2.25;;;;;;;28.12;39.81;101334.94;4181153;28;20547;-65
2022/09/21 07:03:37;;;;;;;2.78;2.35;;;;;;;28.12;39.46;101329.31;4188421;28;20488;-65
2022/09/21 07:05:39;;;;;;;3.13;2.72;;;;;;;27.95;39.32;101298.25;4197548;28;20075;-65
2022/09/21 07:07:40;;;;;;;2.70;2.50;;;;;;;28.10;39.41;101323.19;4197311;28;20483;-65
2022/09/21 07:09:44;;;;;;;2.65;2.35;;;;;;;28.05;39.36;101306.44;4187391;28;20476;-65
2022/09/21 07:11:46;;;;;;;3.20;2.50;;;;;;;28.13;39.51;101319.72;4180795;28;20439;-65
2022/09/21 07:13:50;;;;;;;2.97;2.38;;;;;;;27.92;39.97;101291.31;4180687;28;20071;-65
2022/09/21 07:15:54;;;;;;;3.30;2.40;;;;;;;28.11;39.89;101316.41;4180896;28;20049;-65
2022/09/21 07:17:58;;;;;;;2.40;2.20;;;;;;;27.92;39.75;101290.47;4181089;28;20282;-65
2022/09/21 07:20:00;;;;;;;2.50;2.15;;;;;;;28.12;39.87;101326.50;4193076;28;20106;-65
2022/09/21 07:22:04;;;;;;;3.38;2.80;;;;;;;28.11;40.03;101322.03;4196865;28;20032;-65
2022/09/21 07:24:06;;;;;;;3.43;2.60;;;;;;;28.12;39.75;101318.06;4196558;28;20093;-65
2022/09/21 07:26:16;;;;;;;2.40;2.10;;;;;;;28.11;39.78;101316.41;4197368;28;20094;-65
2022/09/21 07:28:18;;;;;;;3.63;2.58;;;;;;;28.12;39.75;101318.06;4197535;28;20037;-65
2022/09/21 07:30:19;;;;;;;2.90;2.60;;;;;;;28.09;40.04;101313.09;4196226;28;20113;-66
2022/09/21 07:32:21;;;;;;;3.08;2.60;;;;;;;28.11;39.84;101322.03;4196796;28;20553;-65
2022/09/21 07:34:22;;;;;;;2.95;2.60;;;;;;;28.09;40.04;101327.16;4197426;28;20098;-65
2022/09/21 07:36:23;;;;;;;2.95;2.65;;;;;;;27.98;39.98;101306.88;4197243;28;20040;-65
2022/09/21 07:38:26;;;;;;;2.50;2.17;;;;;;;28.10;39.89;101320.38;4191815;28;20041;-65
2022/09/21 07:40:28;;;;;;;2.50;2.28;;;;;;;28.06;40.10;101313.72;4197217;28;20048;-65
2022/09/21 07:42:30;;;;;;;2.90;2.42;;;;;;;28.06;39.80;101313.72;4197258;28;20071;-65
2022/09/21 07:44:31;;;;;;;2.60;2.35;;;;;;;27.99;39.65;101302.09;4197350;28;20048;-65
2022/09/21 07:46:34;;;;;;;3.08;2.78;;;;;;;28.07;39.69;101321.00;4197326;28;20110;-65
2022/09/21 07:48:36;;;;;;;2.40;2.20;;;;;;;28.07;39.65;101316.22;4197372;28;20090;-65
2022/09/21 07:50:38;;;;;;;2.65;2.40;;;;;;;28.07;40.16;101316.22;4194714;28;20040;-66
2022/09/21 07:52:48;;;;;;;3.10;2.40;;;;;;;28.06;39.85;101313.72;4191375;28;20447;-65
2022/09/21 07:54:49;;;;;;;3.03;2.60;;;;;;;28.07;40.05;101306.94;4191828;28;20036;-65
2022/09/21 07:59:12;;;;;;;2.38;2.17;;;;;;;28.06;40.01;101314.56;4197029;28;20121;-66
2022/09/21 08:01:14;;;;;;;2.50;2.30;;;;;;;28.07;39.60;101315.38;4196553;28;20106;-65
2022/09/21 08:03:15;;;;;;;3.22;2.40;;;;;;;28.08;39.94;101308.59;4196678;28;20484;-65
2022/09/21 08:05:19;;;;;;;2.45;2.25;;;;;;;27.97;40.16;101293.16;4196780;28;20143;-66
2022/09/21 08:07:20;;;;;;;2.53;2.10;;;;;;;28.06;39.84;101308.94;4197098;28;20036;-66
2022/09/21 08:09:24;;;;;;;3.75;2.40;;;;;;;28.06;40.10;101317.38;4196714;28;20078;-66
2022/09/21 08:11:29;;;;;;;3.42;2.60;;;;;;;27.85;39.87;101277.69;4196980;28;20036;-64
2022/09/21 08:13:33;;;;;;;2.72;2.38;;;;;;;28.06;39.74;101314.56;4197716;28;20032;-64
2022/09/21 08:15:34;;;;;;;6.03;2.80;;;;;;;28.06;39.60;101310.91;4197061;28;20215;-65
2022/09/21 08:17:40;;;;;;;3.58;2.83;;;;;;;27.94;39.81;101300.25;4196837;28;20757;-65
2022/09/21 08:19:41;;;;;;;2.50;2.30;;;;;;;28.05;39.98;101314.91;4197089;28;20565;-64
2022/09/21 08:21:42;;;;;;;2.60;2.20;;;;;;;27.94;39.87;101300.25;4196732;28;20032;-64
2022/09/21 08:23:44;;;;;;;3.83;2.45;;;;;;;28.02;39.91;101316.34;4197259;28;20044;-64
2022/09/21 08:25:48;;;;;;;2.90;2.58;;;;;;;28.01;40.13;101317.50;4196822;28;20102;-64
2022/09/21 08:27:50;;;;;;;2.90;2.50;;;;;;;28.01;39.98;101319.50;4186867;28;20041;-65
2022/09/21 08:29:51;;;;;;;2.50;2.30;;;;;;;28.04;39.89;101321.66;4193431;28;20040;-64
2022/09/21 08:31:52;;;;;;;2.85;2.50;;;;;;;28.03;40.13;101320.00;4196168;28;20112;-65
2022/09/21 08:33:54;;;;;;;2.78;2.28;;;;;;;28.03;39.97;101317.19;4183698;28;20441;-65
2022/09/21 08:35:58;;;;;;;2.63;2.42;;;;;;;28.00;40.05;101320.66;4180000;28;20036;-65
2022/09/21 08:37:59;;;;;;;3.20;2.15;;;;;;;28.01;39.87;101328.75;4180176;28;20428;-64
2022/09/21 08:40:02;;;;;;;3.05;2.30;;;;;;;27.35;40.00;101220.72;4180017;28;20091;-65
2022/09/21 08:42:16;;;;;;;3.00;2.70;;;;;;;28.00;39.91;101329.09;4180204;28;20091;-65
2022/09/21 08:44:38;;;;;;;2.40;2.20;;;;;;;28.00;39.93;101337.53;4192641;28;20041;-65
2022/09/21 08:46:41;;;;;;;2.47;2.10;;;;;;;28.02;39.98;101324.78;4197228;28;20401;-64
2022/09/21 08:48:49;;;;;;;2.90;2.35;;;;;;;28.02;39.88;101333.22;4197164;28;20094;-65
2022/09/21 08:50:53;;;;;;;3.03;2.17;;;;;;;28.02;40.18;101330.41;4197058;28;20048;-65
2022/09/21 08:53:03;;;;;;;2.60;2.33;;;;;;;28.01;39.99;101340.00;4196630;28;20033;-64
2022/09/21 08:55:20;;;;;;;2.90;2.47;;;;;;;27.88;40.26;101318.41;4197224;28;20032;-65
2022/09/21 08:57:29;;;;;;;2.80;2.60;;;;;;;27.99;40.22;101336.69;4197175;28;20122;-64
2022/09/21 08:59:30;;;;;;;2.95;2.20;;;;;;;28.02;40.21;101340.84;4196998;28;20041;-65
2022/09/21 09:01:47;;;;;;;3.33;2.65;;;;;;;28.00;40.34;101343.16;4196551;28;20048;-65
2022/09/21 09:04:10;;;;;;;3.65;2.90;;;;;;;28.00;40.53;101343.16;4197161;28;20037;-65
2022/09/21 09:06:49;;;;;;;2.97;2.67;;;;;;;27.97;40.42;101335.34;4197137;28;20098;-65
2022/09/21 09:09:21;;;;;;;2.67;2.30;;;;;;;27.99;40.25;101327.41;4197150;28;20037;-65
2022/09/21 09:11:43;;;;;;;2.55;2.30;;;;;;;28.00;40.44;101331.91;4199708;28;20097;-65
2022/09/21 09:14:21;;;;;;;2.50;2.22;;;;;;;27.97;39.91;101326.91;4199893;28;20086;-64
2022/09/21 09:17:00;;;;;;;2.75;2.38;;;;;;;28.00;40.42;101331.91;4199936;28;20048;-64
2022/09/21 09:19:19;;;;;;;2.70;2.47;;;;;;;28.01;40.39;101333.56;4199784;28;20040;-64
2022/09/21 09:21:27;;;;;;;2.58;2.38;;;;;;;27.99;40.27;101341.47;4199555;28;20070;-64
2022/09/21 09:23:33;;;;;;;3.40;2.28;;;;;;;27.98;40.28;101339.81;4199601;28;20036;-64
2022/09/21 09:25:38;;;;;;;2.60;2.40;;;;;;;27.97;40.63;101339.00;4199524;28;20040;-64
2022/09/21 09:27:43;;;;;;;3.10;2.45;;;;;;;27.96;40.33;101337.34;4199670;28;20090;-65
2022/09/21 09:30:05;;;;;;;3.25;2.63;;;;;;;27.95;40.53;101334.81;4199716;28;20437;-64
2022/09/21 09:32:13;;;;;;;3.47;1.95;;;;;;;27.96;40.60;101336.50;4199716;28;20048;-64
2022/09/21 09:34:21;;;;;;;3.00;2.40;;;;;;;27.96;40.38;101336.50;4199822;28;20067;-64
2022/09/21 09:36:28;;;;;;;2.78;2.45;;;;;;;27.95;40.66;101334.81;4199266;28;20041;-64
2022/09/21 09:38:37;;;;;;;6.43;2.42;;;;;;;27.96;40.36;101342.97;4199822;28;20040;-64
2022/09/21 09:40:55;;;;;;;3.28;2.88;;;;;;;27.96;40.51;101342.97;4199572;28;20071;-65
2022/09/21 09:43:28;;;;;;;3.03;2.35;;;;;;;27.96;40.57;101342.13;4199249;28;20102;-64
2022/09/21 09:45:41;;;;;;;2.65;2.45;;;;;;;27.95;40.49;101346.06;4181758;28;20048;-64
2022/09/21 09:47:47;;;;;;;2.92;2.60;;;;;;;27.95;40.30;101335.69;4199540;28;20044;-64
2022/09/21 09:50:00;;;;;;;2.70;2.20;;;;;;;27.94;40.66;101344.41;4188156;28;20091;-64
2022/09/21 09:52:04;;;;;;;4.43;2.60;;;;;;;27.95;40.54;101340.44;4187305;28;20098;-64
2022/09/21 09:54:16;;;;;;;2.53;2.33;;;;;;;27.94;40.70;101344.41;4182869;28;20041;-64
2022/09/21 09:56:17;;;;;;;3.17;2.50;;;;;;;27.95;40.42;101346.06;4182373;28;20103;-64